sensor_id;sensor_type;location;lat;lon;timestamp;pressure;altitude;pressure_sealevel;temperature;humidity
4576;BME280;2300;51.874;8.430;2023-02-28T00:01:24;102267.88;;;-1.72;78.42
4576;BME280;2300;51.874;8.430;2023-02-28T00:03:50;102256.06;;;-1.82;78.51
4576;BME280;2300;51.874;8.430;2023-02-28T00:06:18;102261.47;;;-1.82;78.92
4576;BME280;2300;51.874;8.430;2023-02-28T00:08:45;102267.31;;;-1.88;78.88
4576;BME280;2300;51.874;8.430;2023-02-28T00:11:15;102251.50;;;-1.92;79.26
4576;BME280;2300;51.874;8.430;2023-02-28T00:13:44;102257.38;;;-1.87;79.33
4576;BME280;2300;51.874;8.430;2023-02-28T00:16:13;102250.38;;;-1.90;79.24
4576;BME280;2300;51.874;8.430;2023-02-28T00:18:41;102252.97;;;-1.88;79.13
4576;BME280;2300;51.874;8.430;2023-02-28T00:21:08;102233.78;;;-2.08;79.68
4576;BME280;2300;51.874;8.430;2023-02-28T00:23:35;102217.72;;;-2.09;79.36
4576;BME280;2300;51.874;8.430;2023-02-28T00:26:02;102245.81;;;-1.77;78.75
4576;BME280;2300;51.874;8.430;2023-02-28T00:28:30;102263.47;;;-1.73;78.15
4576;BME280;2300;51.874;8.430;2023-02-28T00:30:56;102270.56;;;-1.72;78.02
4576;BME280;2300;51.874;8.430;2023-02-28T00:33:25;102261.53;;;-1.71;77.93
4576;BME280;2300;51.874;8.430;2023-02-28T00:35:51;102265.19;;;-1.72;79.12
4576;BME280;2300;51.874;8.430;2023-02-28T00:38:18;102272.06;;;-1.68;78.43
4576;BME280;2300;51.874;8.430;2023-02-28T00:40:44;102265.34;;;-1.86;79.08
4576;BME280;2300;51.874;8.430;2023-02-28T00:43:11;102273.72;;;-1.78;79.67
4576;BME280;2300;51.874;8.430;2023-02-28T00:45:38;102275.72;;;-1.69;79.22
4576;BME280;2300;51.874;8.430;2023-02-28T00:48:05;102277.19;;;-1.65;79.00
4576;BME280;2300;51.874;8.430;2023-02-28T00:50:32;102272.28;;;-1.71;78.94
4576;BME280;2300;51.874;8.430;2023-02-28T00:52:58;102270.34;;;-1.69;78.84
4576;BME280;2300;51.874;8.430;2023-02-28T00:55:25;102271.38;;;-1.82;78.69
4576;BME280;2300;51.874;8.430;2023-02-28T00:57:51;102275.13;;;-1.85;79.06
4576;BME280;2300;51.874;8.430;2023-02-28T01:00:18;102273.41;;;-1.86;79.02
4576;BME280;2300;51.874;8.430;2023-02-28T01:02:46;102281.38;;;-1.84;79.02
4576;BME280;2300;51.874;8.430;2023-02-28T01:05:12;102284.72;;;-1.81;79.01
4576;BME280;2300;51.874;8.430;2023-02-28T01:07:39;102277.50;;;-1.80;79.06
4576;BME280;2300;51.874;8.430;2023-02-28T01:10:06;102271.75;;;-1.76;78.79
4576;BME280;2300;51.874;8.430;2023-02-28T01:12:33;102271.88;;;-1.77;78.75
4576;BME280;2300;51.874;8.430;2023-02-28T01:14:59;102275.91;;;-1.83;78.75
4576;BME280;2300;51.874;8.430;2023-02-28T01:17:26;102270.00;;;-1.88;78.65
4576;BME280;2300;51.874;8.430;2023-02-28T01:19:54;102261.41;;;-1.93;78.62
4576;BME280;2300;51.874;8.430;2023-02-28T01:22:21;102244.13;;;-2.14;78.85
4576;BME280;2300;51.874;8.430;2023-02-28T01:24:48;102269.94;;;-1.99;78.70
4576;BME280;2300;51.874;8.430;2023-02-28T01:27:14;102268.03;;;-2.10;78.94
4576;BME280;2300;51.874;8.430;2023-02-28T01:29:40;102190.22;;;-2.62;78.85
4576;BME280;2300;51.874;8.430;2023-02-28T01:32:07;102261.50;;;-2.18;78.85
4576;BME280;2300;51.874;8.430;2023-02-28T01:34:34;102266.78;;;-2.29;79.69
4576;BME280;2300;51.874;8.430;2023-02-28T01:37:01;102257.44;;;-2.37;79.63
4576;BME280;2300;51.874;8.430;2023-02-28T01:39:29;102245.19;;;-2.53;79.86
4576;BME280;2300;51.874;8.430;2023-02-28T01:41:55;102270.16;;;-2.39;80.09
4576;BME280;2300;51.874;8.430;2023-02-28T01:45:04;102260.16;;;-2.49;80.12
4576;BME280;2300;51.874;8.430;2023-02-28T01:47:34;102259.66;;;-2.54;80.19
4576;BME280;2300;51.874;8.430;2023-02-28T01:50:06;102267.59;;;-2.53;80.56
4576;BME280;2300;51.874;8.430;2023-02-28T01:52:35;102257.06;;;-2.56;80.17
4576;BME280;2300;51.874;8.430;2023-02-28T01:55:04;102263.50;;;-2.58;80.64
4576;BME280;2300;51.874;8.430;2023-02-28T01:57:35;102248.97;;;-2.68;80.36
4576;BME280;2300;51.874;8.430;2023-02-28T02:00:07;102256.19;;;-2.69;80.53
4576;BME280;2300;51.874;8.430;2023-02-28T02:02:36;102267.47;;;-2.64;80.85
4576;BME280;2300;51.874;8.430;2023-02-28T02:05:06;102262.44;;;-2.68;81.41
4576;BME280;2300;51.874;8.430;2023-02-28T02:07:36;102265.66;;;-2.63;81.25
4576;BME280;2300;51.874;8.430;2023-02-28T02:10:06;102249.22;;;-2.71;81.11
4576;BME280;2300;51.874;8.430;2023-02-28T02:12:48;102263.53;;;-2.71;81.21
4576;BME280;2300;51.874;8.430;2023-02-28T02:15:24;102264.34;;;-2.58;80.62
4576;BME280;2300;51.874;8.430;2023-02-28T02:17:55;102257.50;;;-2.62;80.24
4576;BME280;2300;51.874;8.430;2023-02-28T02:20:38;102268.34;;;-2.51;80.03
4576;BME280;2300;51.874;8.430;2023-02-28T02:23:38;102267.59;;;-2.53;80.09
4576;BME280;2300;51.874;8.430;2023-02-28T02:26:41;102272.34;;;-2.56;80.01
4576;BME280;2300;51.874;8.430;2023-02-28T02:29:23;102269.63;;;-2.56;80.21
4576;BME280;2300;51.874;8.430;2023-02-28T02:32:11;102260.94;;;-2.60;79.90
4576;BME280;2300;51.874;8.430;2023-02-28T02:34:48;102260.94;;;-2.60;79.92
4576;BME280;2300;51.874;8.430;2023-02-28T02:37:25;102262.00;;;-2.62;79.92
4576;BME280;2300;51.874;8.430;2023-02-28T02:40:02;102258.16;;;-2.71;80.03
4576;BME280;2300;51.874;8.430;2023-02-28T02:42:36;102260.59;;;-2.68;80.11
4576;BME280;2300;51.874;8.430;2023-02-28T02:45:07;102256.00;;;-2.66;80.12
4576;BME280;2300;51.874;8.430;2023-02-28T02:47:36;102256.94;;;-2.67;80.19
4576;BME280;2300;51.874;8.430;2023-02-28T02:50:08;102261.28;;;-2.64;79.73
4576;BME280;2300;51.874;8.430;2023-02-28T02:52:40;102259.22;;;-2.61;79.73
4576;BME280;2300;51.874;8.430;2023-02-28T02:55:11;102257.72;;;-2.65;79.81
4576;BME280;2300;51.874;8.430;2023-02-28T02:57:45;102257.91;;;-2.68;80.02
4576;BME280;2300;51.874;8.430;2023-02-28T03:00:14;102260.75;;;-2.69;79.50
4576;BME280;2300;51.874;8.430;2023-02-28T03:02:42;102261.69;;;-2.70;79.22
4576;BME280;2300;51.874;8.430;2023-02-28T03:05:18;102259.97;;;-2.71;79.03
4576;BME280;2300;51.874;8.430;2023-02-28T03:07:46;102260.22;;;-2.74;79.07
4576;BME280;2300;51.874;8.430;2023-02-28T03:10:32;102264.19;;;-2.80;79.16
4576;BME280;2300;51.874;8.430;2023-02-28T03:16:34;102261.50;;;-2.80;79.20
4576;BME280;2300;51.874;8.430;2023-02-28T03:19:19;102249.97;;;-2.95;78.97
4576;BME280;2300;51.874;8.430;2023-02-28T03:22:00;102257.19;;;-2.95;79.16
4576;BME280;2300;51.874;8.430;2023-02-28T03:24:34;102253.41;;;-3.05;79.46
4576;BME280;2300;51.874;8.430;2023-02-28T03:27:09;102262.25;;;-3.16;79.23
4576;BME280;2300;51.874;8.430;2023-02-28T03:29:40;102256.19;;;-3.19;79.81
4576;BME280;2300;51.874;8.430;2023-02-28T03:32:14;102257.38;;;-3.24;80.61
4576;BME280;2300;51.874;8.430;2023-02-28T03:34:49;102260.06;;;-3.24;80.50
4576;BME280;2300;51.874;8.430;2023-02-28T03:37:22;102261.56;;;-3.19;80.79
4576;BME280;2300;51.874;8.430;2023-02-28T03:39:53;102256.19;;;-3.19;80.79
4576;BME280;2300;51.874;8.430;2023-02-28T03:42:25;102260.63;;;-3.18;80.90
4576;BME280;2300;51.874;8.430;2023-02-28T03:44:55;102258.16;;;-3.22;80.07
4576;BME280;2300;51.874;8.430;2023-02-28T03:47:26;102255.66;;;-3.25;80.47
4576;BME280;2300;51.874;8.430;2023-02-28T03:49:54;102263.00;;;-3.27;79.75
4576;BME280;2300;51.874;8.430;2023-02-28T03:52:28;102256.75;;;-3.27;80.17
4576;BME280;2300;51.874;8.430;2023-02-28T03:55:01;102258.53;;;-3.40;79.80
4576;BME280;2300;51.874;8.430;2023-02-28T03:57:34;102259.81;;;-3.46;80.02
4576;BME280;2300;51.874;8.430;2023-02-28T04:00:06;102254.44;;;-3.46;80.35
4576;BME280;2300;51.874;8.430;2023-02-28T04:02:34;102261.84;;;-3.49;80.34
4576;BME280;2300;51.874;8.430;2023-02-28T04:05:01;102261.09;;;-3.51;80.34
4576;BME280;2300;51.874;8.430;2023-02-28T04:07:30;102251.44;;;-3.54;80.05
4576;BME280;2300;51.874;8.430;2023-02-28T04:09:57;102236.22;;;-3.68;80.03
4576;BME280;2300;51.874;8.430;2023-02-28T04:12:24;102255.38;;;-3.59;80.47
4576;BME280;2300;51.874;8.430;2023-02-28T04:14:50;102267.72;;;-3.57;80.44
4576;BME280;2300;51.874;8.430;2023-02-28T04:17:17;102261.81;;;-3.62;80.42
4576;BME280;2300;51.874;8.430;2023-02-28T04:19:44;102261.72;;;-3.60;80.55
4576;BME280;2300;51.874;8.430;2023-02-28T04:22:10;102262.38;;;-3.57;80.67
4576;BME280;2300;51.874;8.430;2023-02-28T04:24:38;102268.41;;;-3.53;80.61
4576;BME280;2300;51.874;8.430;2023-02-28T04:27:06;102236.91;;;-3.64;80.08
4576;BME280;2300;51.874;8.430;2023-02-28T04:29:33;102267.31;;;-3.51;80.55
4576;BME280;2300;51.874;8.430;2023-02-28T04:32:00;102257.84;;;-3.56;80.15
4576;BME280;2300;51.874;8.430;2023-02-28T04:34:28;102258.94;;;-3.59;79.69
4576;BME280;2300;51.874;8.430;2023-02-28T04:36:55;102262.81;;;-3.63;79.41
4576;BME280;2300;51.874;8.430;2023-02-28T04:39:23;102250.53;;;-3.67;79.86
4576;BME280;2300;51.874;8.430;2023-02-28T04:41:51;102252.78;;;-3.74;80.62
4576;BME280;2300;51.874;8.430;2023-02-28T04:44:18;102256.59;;;-3.78;80.66
4576;BME280;2300;51.874;8.430;2023-02-28T04:46:48;102258.88;;;-3.84;80.84
4576;BME280;2300;51.874;8.430;2023-02-28T04:49:15;102259.06;;;-3.87;81.21
4576;BME280;2300;51.874;8.430;2023-02-28T04:51:41;102255.50;;;-3.88;81.61
4576;BME280;2300;51.874;8.430;2023-02-28T04:54:08;102267.00;;;-3.86;81.44
4576;BME280;2300;51.874;8.430;2023-02-28T04:56:35;102260.44;;;-3.94;82.40
4576;BME280;2300;51.874;8.430;2023-02-28T04:59:02;102252.97;;;-4.03;82.35
4576;BME280;2300;51.874;8.430;2023-02-28T05:01:31;102246.91;;;-4.20;82.00
4576;BME280;2300;51.874;8.430;2023-02-28T05:04:00;102251.41;;;-4.20;82.24
4576;BME280;2300;51.874;8.430;2023-02-28T05:06:29;102264.31;;;-4.13;81.94
4576;BME280;2300;51.874;8.430;2023-02-28T05:08:56;102260.75;;;-4.13;82.05
4576;BME280;2300;51.874;8.430;2023-02-28T05:11:25;102227.97;;;-4.45;82.59
4576;BME280;2300;51.874;8.430;2023-02-28T05:13:52;102264.34;;;-4.27;82.87
4576;BME280;2300;51.874;8.430;2023-02-28T05:16:21;102261.88;;;-4.30;82.42
4576;BME280;2300;51.874;8.430;2023-02-28T05:18:47;102273.66;;;-4.32;82.51
4576;BME280;2300;51.874;8.430;2023-02-28T05:21:24;102259.69;;;-4.37;82.74
4576;BME280;2300;51.874;8.430;2023-02-28T05:23:51;102250.09;;;-4.56;83.35
4576;BME280;2300;51.874;8.430;2023-02-28T05:26:18;102278.38;;;-4.36;83.88
4576;BME280;2300;51.874;8.430;2023-02-28T05:28:44;102268.94;;;-4.29;83.39
4576;BME280;2300;51.874;8.430;2023-02-28T05:31:11;102274.53;;;-4.32;83.72
4576;BME280;2300;51.874;8.430;2023-02-28T05:33:39;102276.13;;;-4.29;83.96
4576;BME280;2300;51.874;8.430;2023-02-28T05:36:06;102275.66;;;-4.22;83.67
4576;BME280;2300;51.874;8.430;2023-02-28T05:38:33;102280.22;;;-4.10;83.66
4576;BME280;2300;51.874;8.430;2023-02-28T05:41:00;102283.81;;;-3.96;83.25
4576;BME280;2300;51.874;8.430;2023-02-28T05:43:26;102286.66;;;-3.85;82.39
4576;BME280;2300;51.874;8.430;2023-02-28T05:45:53;102294.41;;;-3.81;81.86
4576;BME280;2300;51.874;8.430;2023-02-28T05:48:19;102283.38;;;-3.76;81.03
4576;BME280;2300;51.874;8.430;2023-02-28T05:50:47;102285.72;;;-3.84;81.00
4576;BME280;2300;51.874;8.430;2023-02-28T05:53:13;102287.38;;;-3.96;81.51
4576;BME280;2300;51.874;8.430;2023-02-28T05:55:40;102287.38;;;-3.96;81.40
4576;BME280;2300;51.874;8.430;2023-02-28T05:58:07;102282.50;;;-4.03;81.37
4576;BME280;2300;51.874;8.430;2023-02-28T06:00:33;102288.63;;;-4.01;81.77
4576;BME280;2300;51.874;8.430;2023-02-28T06:03:00;102285.00;;;-4.00;81.93
4576;BME280;2300;51.874;8.430;2023-02-28T06:05:27;102269.50;;;-4.10;81.35
4576;BME280;2300;51.874;8.430;2023-02-28T06:07:55;102284.59;;;-3.94;81.44
4576;BME280;2300;51.874;8.430;2023-02-28T06:10:21;102284.78;;;-3.97;80.82
4576;BME280;2300;51.874;8.430;2023-02-28T06:12:48;102278.09;;;-4.04;80.90
4576;BME280;2300;51.874;8.430;2023-02-28T06:15:15;102278.84;;;-4.02;81.03
4576;BME280;2300;51.874;8.430;2023-02-28T06:17:43;102286.13;;;-3.90;80.47
4576;BME280;2300;51.874;8.430;2023-02-28T06:20:11;102289.09;;;-3.95;80.57
4576;BME280;2300;51.874;8.430;2023-02-28T06:22:38;102301.09;;;-4.00;80.52
4576;BME280;2300;51.874;8.430;2023-02-28T06:25:07;102264.81;;;-4.20;81.20
4576;BME280;2300;51.874;8.430;2023-02-28T06:27:34;102296.84;;;-3.90;81.15
4576;BME280;2300;51.874;8.430;2023-02-28T06:30:00;102295.59;;;-3.85;81.37
4576;BME280;2300;51.874;8.430;2023-02-28T06:32:27;102298.75;;;-3.78;80.55
4576;BME280;2300;51.874;8.430;2023-02-28T06:34:53;102293.56;;;-3.81;80.13
4576;BME280;2300;51.874;8.430;2023-02-28T06:37:19;102301.44;;;-3.78;80.33
4576;BME280;2300;51.874;8.430;2023-02-28T06:39:46;102297.97;;;-3.80;79.62
4576;BME280;2300;51.874;8.430;2023-02-28T06:42:14;102291.66;;;-3.93;79.30
4576;BME280;2300;51.874;8.430;2023-02-28T06:44:41;102309.97;;;-3.86;79.76
4576;BME280;2300;51.874;8.430;2023-02-28T06:47:08;102308.34;;;-3.88;79.42
4576;BME280;2300;51.874;8.430;2023-02-28T06:49:35;102308.34;;;-3.88;79.62
4576;BME280;2300;51.874;8.430;2023-02-28T06:52:02;102307.38;;;-3.87;79.01
4576;BME280;2300;51.874;8.430;2023-02-28T06:54:28;102312.75;;;-3.87;79.00
4576;BME280;2300;51.874;8.430;2023-02-28T06:56:55;102321.47;;;-3.84;79.97
4576;BME280;2300;51.874;8.430;2023-02-28T06:59:24;102316.97;;;-3.83;80.03
4576;BME280;2300;51.874;8.430;2023-02-28T07:01:51;102326.16;;;-3.73;80.16
4576;BME280;2300;51.874;8.430;2023-02-28T07:04:17;102329.19;;;-3.65;80.46
4576;BME280;2300;51.874;8.430;2023-02-28T07:06:44;102327.94;;;-3.47;80.41
4576;BME280;2300;51.874;8.430;2023-02-28T07:09:10;102328.94;;;-3.35;80.08
4576;BME280;2300;51.874;8.430;2023-02-28T07:11:37;102330.28;;;-3.15;79.36
4576;BME280;2300;51.874;8.430;2023-02-28T07:14:03;102340.56;;;-2.95;78.95
4576;BME280;2300;51.874;8.430;2023-02-28T07:16:31;102344.34;;;-2.85;78.53
4576;BME280;2300;51.874;8.430;2023-02-28T07:18:58;102344.97;;;-2.69;77.86
4576;BME280;2300;51.874;8.430;2023-02-28T07:21:24;102350.91;;;-2.51;77.34
4576;BME280;2300;51.874;8.430;2023-02-28T07:23:51;102342.81;;;-2.39;77.12
4576;BME280;2300;51.874;8.430;2023-02-28T07:26:18;102350.84;;;-2.13;76.08
4576;BME280;2300;51.874;8.430;2023-02-28T07:28:46;102355.56;;;-2.04;76.07
4576;BME280;2300;51.874;8.430;2023-02-28T07:31:14;102350.78;;;-1.88;74.94
4576;BME280;2300;51.874;8.430;2023-02-28T07:33:42;102350.03;;;-1.90;74.95
4576;BME280;2300;51.874;8.430;2023-02-28T07:36:10;102355.34;;;-1.65;74.55
4576;BME280;2300;51.874;8.430;2023-02-28T07:38:40;102354.25;;;-1.38;74.02
4576;BME280;2300;51.874;8.430;2023-02-28T07:41:07;102355.78;;;-1.23;73.78
4576;BME280;2300;51.874;8.430;2023-02-28T07:43:34;102351.47;;;-1.02;72.99
4576;BME280;2300;51.874;8.430;2023-02-28T07:46:02;102358.88;;;-0.82;72.00
4576;BME280;2300;51.874;8.430;2023-02-28T07:48:29;102367.53;;;-0.54;71.58
4576;BME280;2300;51.874;8.430;2023-02-28T07:50:57;102364.25;;;-0.47;71.36
4576;BME280;2300;51.874;8.430;2023-02-28T07:53:24;102360.91;;;-0.39;70.27
4576;BME280;2300;51.874;8.430;2023-02-28T07:55:51;102358.00;;;-0.36;69.78
4576;BME280;2300;51.874;8.430;2023-02-28T07:58:18;102358.34;;;-0.18;68.20
4576;BME280;2300;51.874;8.430;2023-02-28T08:00:44;102355.66;;;0.04;67.28
4576;BME280;2300;51.874;8.430;2023-02-28T08:03:11;102351.81;;;0.06;66.71
4576;BME280;2300;51.874;8.430;2023-02-28T08:05:38;102353.44;;;0.09;66.00
4576;BME280;2300;51.874;8.430;2023-02-28T08:08:07;102350.09;;;0.16;65.59
4576;BME280;2300;51.874;8.430;2023-02-28T08:10:33;102362.63;;;0.29;64.74
4576;BME280;2300;51.874;8.430;2023-02-28T08:13:00;102362.81;;;0.37;63.18
4576;BME280;2300;51.874;8.430;2023-02-28T08:15:27;102370.69;;;0.40;64.03
4576;BME280;2300;51.874;8.430;2023-02-28T08:17:53;102371.41;;;0.53;63.03
4576;BME280;2300;51.874;8.430;2023-02-28T08:20:21;102364.22;;;0.63;61.64
4576;BME280;2300;51.874;8.430;2023-02-28T08:22:47;102361.66;;;0.73;60.81
4576;BME280;2300;51.874;8.430;2023-02-28T08:25:15;102364.66;;;0.79;61.62
4576;BME280;2300;51.874;8.430;2023-02-28T08:27:42;102370.31;;;0.87;61.30
4576;BME280;2300;51.874;8.430;2023-02-28T08:30:10;102362.88;;;1.00;60.69
4576;BME280;2300;51.874;8.430;2023-02-28T08:32:37;102367.03;;;1.04;60.30
4576;BME280;2300;51.874;8.430;2023-02-28T08:35:04;102353.72;;;1.13;61.65
4576;BME280;2300;51.874;8.430;2023-02-28T08:37:30;102358.06;;;1.25;60.76
4576;BME280;2300;51.874;8.430;2023-02-28T08:39:57;102360.91;;;1.23;60.68
4576;BME280;2300;51.874;8.430;2023-02-28T08:42:24;102367.94;;;1.35;61.43
4576;BME280;2300;51.874;8.430;2023-02-28T08:44:51;102368.28;;;1.42;60.73
4576;BME280;2300;51.874;8.430;2023-02-28T08:47:17;102367.31;;;1.43;60.74
4576;BME280;2300;51.874;8.430;2023-02-28T08:49:44;102368.41;;;1.40;60.27
4576;BME280;2300;51.874;8.430;2023-02-28T08:52:10;102355.72;;;1.41;60.44
4576;BME280;2300;51.874;8.430;2023-02-28T08:54:37;102363.66;;;1.54;60.07
4576;BME280;2300;51.874;8.430;2023-02-28T08:57:03;102359.22;;;1.53;60.44
4576;BME280;2300;51.874;8.430;2023-02-28T08:59:31;102361.53;;;1.57;59.79
4576;BME280;2300;51.874;8.430;2023-02-28T09:01:57;102366.72;;;1.60;59.31
4576;BME280;2300;51.874;8.430;2023-02-28T09:04:24;102361.88;;;1.64;59.94
4576;BME280;2300;51.874;8.430;2023-02-28T09:06:50;102373.56;;;1.95;59.80
4576;BME280;2300;51.874;8.430;2023-02-28T09:09:17;102360.19;;;2.03;59.61
4576;BME280;2300;51.874;8.430;2023-02-28T09:11:43;102376.28;;;2.44;57.96
4576;BME280;2300;51.874;8.430;2023-02-28T09:14:10;102365.44;;;2.44;57.65
4576;BME280;2300;51.874;8.430;2023-02-28T09:16:37;102364.00;;;2.40;57.85
4576;BME280;2300;51.874;8.430;2023-02-28T09:19:04;102366.75;;;2.59;57.42
4576;BME280;2300;51.874;8.430;2023-02-28T09:21:31;102356.94;;;2.97;56.84
4576;BME280;2300;51.874;8.430;2023-02-28T09:23:57;102358.22;;;3.02;56.47
4576;BME280;2300;51.874;8.430;2023-02-28T09:26:25;102359.50;;;3.08;55.80
4576;BME280;2300;51.874;8.430;2023-02-28T09:28:52;102357.22;;;3.03;55.54
4576;BME280;2300;51.874;8.430;2023-02-28T09:31:22;102356.09;;;3.06;55.96
4576;BME280;2300;51.874;8.430;2023-02-28T09:33:51;102356.66;;;3.09;56.15
4576;BME280;2300;51.874;8.430;2023-02-28T09:36:18;102365.31;;;3.32;55.39
4576;BME280;2300;51.874;8.430;2023-02-28T09:38:45;102364.44;;;3.60;55.06
4576;BME280;2300;51.874;8.430;2023-02-28T09:41:14;102350.84;;;3.60;54.95
4576;BME280;2300;51.874;8.430;2023-02-28T09:43:44;102345.34;;;3.80;54.41
4576;BME280;2300;51.874;8.430;2023-02-28T09:46:21;102357.38;;;3.77;54.43
4576;BME280;2300;51.874;8.430;2023-02-28T09:48:54;102361.09;;;3.76;53.24
4576;BME280;2300;51.874;8.430;2023-02-28T09:51:30;102358.44;;;3.57;54.31
4576;BME280;2300;51.874;8.430;2023-02-28T09:53:59;102348.59;;;3.46;54.46
4576;BME280;2300;51.874;8.430;2023-02-28T09:56:30;102363.13;;;3.64;55.46
4576;BME280;2300;51.874;8.430;2023-02-28T09:59:01;102359.25;;;3.77;54.85
4576;BME280;2300;51.874;8.430;2023-02-28T10:01:34;102366.56;;;3.67;54.49
4576;BME280;2300;51.874;8.430;2023-02-28T10:04:08;102369.16;;;3.49;54.63
4576;BME280;2300;51.874;8.430;2023-02-28T10:06:43;102379.91;;;3.50;55.53
4576;BME280;2300;51.874;8.430;2023-02-28T10:09:14;102365.47;;;3.40;54.47
4576;BME280;2300;51.874;8.430;2023-02-28T10:11:43;102339.78;;;3.25;55.25
4576;BME280;2300;51.874;8.430;2023-02-28T10:14:14;102369.47;;;3.46;55.79
4576;BME280;2300;51.874;8.430;2023-02-28T10:16:44;102383.75;;;3.57;55.70
4576;BME280;2300;51.874;8.430;2023-02-28T10:19:18;102324.91;;;3.29;55.05
4576;BME280;2300;51.874;8.430;2023-02-28T10:21:50;102371.41;;;3.63;56.33
4576;BME280;2300;51.874;8.430;2023-02-28T10:24:24;102375.16;;;3.62;56.20
4576;BME280;2300;51.874;8.430;2023-02-28T10:26:56;102340.28;;;3.57;55.94
4576;BME280;2300;51.874;8.430;2023-02-28T10:29:26;102374.81;;;3.75;55.49
4576;BME280;2300;51.874;8.430;2023-02-28T10:31:52;102371.16;;;3.56;56.30
4576;BME280;2300;51.874;8.430;2023-02-28T10:34:20;102361.09;;;3.76;56.36
4576;BME280;2300;51.874;8.430;2023-02-28T10:36:48;102358.78;;;3.81;56.84
4576;BME280;2300;51.874;8.430;2023-02-28T10:39:35;102359.94;;;3.79;56.21
4576;BME280;2300;51.874;8.430;2023-02-28T10:42:03;102369.63;;;3.91;56.90
4576;BME280;2300;51.874;8.430;2023-02-28T10:44:29;102362.47;;;3.90;56.83
4576;BME280;2300;51.874;8.430;2023-02-28T10:46:56;102359.16;;;3.96;56.94
4576;BME280;2300;51.874;8.430;2023-02-28T10:49:26;102356.22;;;3.80;57.95
4576;BME280;2300;51.874;8.430;2023-02-28T10:51:55;102357.94;;;3.81;58.33
4576;BME280;2300;51.874;8.430;2023-02-28T10:54:26;102356.94;;;3.82;58.40
4576;BME280;2300;51.874;8.430;2023-02-28T10:57:06;102327.16;;;3.43;59.18
4576;BME280;2300;51.874;8.430;2023-02-28T10:59:35;102346.34;;;3.79;58.50
4576;BME280;2300;51.874;8.430;2023-02-28T11:02:01;102340.34;;;3.75;59.21
4576;BME280;2300;51.874;8.430;2023-02-28T11:04:38;102316.41;;;3.51;60.60
4576;BME280;2300;51.874;8.430;2023-02-28T11:07:11;102348.78;;;3.82;60.06
4576;BME280;2300;51.874;8.430;2023-02-28T11:09:45;102349.06;;;3.79;59.88
4576;BME280;2300;51.874;8.430;2023-02-28T11:12:20;102346.34;;;3.79;59.02
4576;BME280;2300;51.874;8.430;2023-02-28T11:14:50;102344.16;;;3.92;59.30
4576;BME280;2300;51.874;8.430;2023-02-28T11:17:20;102344.16;;;3.92;59.08
4576;BME280;2300;51.874;8.430;2023-02-28T11:19:51;102315.84;;;3.57;58.38
4576;BME280;2300;51.874;8.430;2023-02-28T11:22:19;102342.63;;;3.80;59.55
4576;BME280;2300;51.874;8.430;2023-02-28T11:24:50;102349.13;;;3.59;58.41
4576;BME280;2300;51.874;8.430;2023-02-28T11:27:45;102342.25;;;3.65;59.16
4576;BME280;2300;51.874;8.430;2023-02-28T11:30:28;102337.00;;;3.44;59.48
4576;BME280;2300;51.874;8.430;2023-02-28T11:32:54;102336.16;;;3.44;60.38
4576;BME280;2300;51.874;8.430;2023-02-28T11:35:25;102325.16;;;3.45;60.94
4576;BME280;2300;51.874;8.430;2023-02-28T11:37:52;102328.25;;;3.60;59.53
4576;BME280;2300;51.874;8.430;2023-02-28T11:40:24;102326.72;;;3.85;58.99
4576;BME280;2300;51.874;8.430;2023-02-28T11:43:02;102328.66;;;4.02;59.72
4576;BME280;2300;51.874;8.430;2023-02-28T11:45:49;102308.78;;;3.64;58.06
4576;BME280;2300;51.874;8.430;2023-02-28T11:48:23;102318.75;;;3.37;59.90
4576;BME280;2300;51.874;8.430;2023-02-28T11:51:10;102314.28;;;3.45;58.49
4576;BME280;2300;51.874;8.430;2023-02-28T11:53:50;102314.84;;;3.86;59.39
4576;BME280;2300;51.874;8.430;2023-02-28T11:56:26;102306.38;;;3.98;57.75
4576;BME280;2300;51.874;8.430;2023-02-28T11:59:08;102313.94;;;4.22;58.17
4576;BME280;2300;51.874;8.430;2023-02-28T12:02:03;102311.00;;;4.78;57.92
4576;BME280;2300;51.874;8.430;2023-02-28T12:04:41;102304.94;;;4.84;56.46
4576;BME280;2300;51.874;8.430;2023-02-28T12:07:16;102297.69;;;4.93;56.91
4576;BME280;2300;51.874;8.430;2023-02-28T12:09:53;102286.59;;;4.86;54.75
4576;BME280;2300;51.874;8.430;2023-02-28T12:12:32;102291.16;;;4.86;55.15
4576;BME280;2300;51.874;8.430;2023-02-28T12:15:23;102285.31;;;4.99;55.67
4576;BME280;2300;51.874;8.430;2023-02-28T12:18:12;102281.75;;;4.80;55.16
4576;BME280;2300;51.874;8.430;2023-02-28T12:20:48;102275.84;;;4.85;55.20
4576;BME280;2300;51.874;8.430;2023-02-28T12:23:33;102277.53;;;5.29;56.69
4576;BME280;2300;51.874;8.430;2023-02-28T12:26:14;102277.22;;;5.32;54.43
4576;BME280;2300;51.874;8.430;2023-02-28T12:28:46;102279.88;;;5.24;53.63
4576;BME280;2300;51.874;8.430;2023-02-28T12:31:18;102275.63;;;4.61;52.69
4576;BME280;2300;51.874;8.430;2023-02-28T12:33:50;102279.84;;;4.99;54.64
4576;BME280;2300;51.874;8.430;2023-02-28T12:36:19;102265.34;;;4.90;53.67
4576;BME280;2300;51.874;8.430;2023-02-28T12:38:53;102272.16;;;4.94;53.39
4576;BME280;2300;51.874;8.430;2023-02-28T12:41:26;102263.66;;;5.15;53.54
4576;BME280;2300;51.874;8.430;2023-02-28T12:43:58;102257.78;;;5.27;53.63
4576;BME280;2300;51.874;8.430;2023-02-28T12:46:31;102255.25;;;5.08;52.13
4576;BME280;2300;51.874;8.430;2023-02-28T12:49:02;102251.38;;;5.37;53.52
4576;BME280;2300;51.874;8.430;2023-02-28T12:51:31;102261.75;;;5.33;52.98
4576;BME280;2300;51.874;8.430;2023-02-28T12:54:07;102269.94;;;5.15;53.43
4576;BME280;2300;51.874;8.430;2023-02-28T12:56:42;102236.56;;;5.39;54.56
4576;BME280;2300;51.874;8.430;2023-02-28T12:59:17;102250.09;;;5.49;53.09
4576;BME280;2300;51.874;8.430;2023-02-28T13:02:09;102240.31;;;5.72;54.41
4576;BME280;2300;51.874;8.430;2023-02-28T13:04:55;102233.25;;;6.03;53.70
4576;BME280;2300;51.874;8.430;2023-02-28T13:07:45;102224.34;;;5.85;52.30
4576;BME280;2300;51.874;8.430;2023-02-28T13:10:18;102221.81;;;5.92;53.42
4576;BME280;2300;51.874;8.430;2023-02-28T13:12:49;102221.03;;;6.24;53.80
4576;BME280;2300;51.874;8.430;2023-02-28T13:15:19;102216.47;;;6.32;51.97
4576;BME280;2300;51.874;8.430;2023-02-28T13:17:51;102212.81;;;6.07;51.22
4576;BME280;2300;51.874;8.430;2023-02-28T13:20:35;102215.41;;;5.67;50.98
4576;BME280;2300;51.874;8.430;2023-02-28T13:23:02;102205.69;;;5.30;52.22
4576;BME280;2300;51.874;8.430;2023-02-28T13:25:53;102204.56;;;5.41;52.73
4576;BME280;2300;51.874;8.430;2023-02-28T13:31:32;102198.84;;;5.52;51.93
4576;BME280;2300;51.874;8.430;2023-02-28T13:34:15;102201.22;;;5.55;51.23
4576;BME280;2300;51.874;8.430;2023-02-28T13:36:42;102199.75;;;5.69;51.75
4576;BME280;2300;51.874;8.430;2023-02-28T13:42:31;102203.06;;;5.47;51.62